createdAt,value
2023-06-22T00:01:04.851Z,97699.38
2023-06-22T00:03:33.376Z,97695.78
2023-06-22T00:06:01.833Z,97695.78
2023-06-22T00:08:30.224Z,97688.28
2023-06-22T00:10:58.689Z,97695.78
2023-06-22T00:13:27.130Z,97683.91
2023-06-22T00:15:55.645Z,97684.72
2023-06-22T00:18:28.796Z,97693.03
2023-06-22T00:20:59.784Z,97683.91
2023-06-22T00:23:28.394Z,97683.09
2023-06-22T00:25:56.941Z,97694.16
2023-06-22T00:28:25.396Z,97690.59
2023-06-22T00:30:53.915Z,97685.88
2023-06-22T00:33:22.413Z,97694.16
2023-06-22T00:35:53.751Z,97688.63
2023-06-22T00:38:22.293Z,97678.69
2023-06-22T00:40:50.750Z,97681.47
2023-06-22T00:43:19.193Z,97681.47
2023-06-22T00:45:48.266Z,97674.31
2023-06-22T00:48:20.168Z,97682.28
2023-06-22T00:50:51.586Z,97681.47
2023-06-22T00:53:21.741Z,97677.06
2023-06-22T00:55:52.629Z,97670.41
2023-06-22T00:58:22.903Z,97689.78
2023-06-22T01:00:51.543Z,97693.34
2023-06-22T01:03:22.056Z,97675.94
2023-06-22T01:05:52.196Z,97682.63
2023-06-22T01:08:31.901Z,97674.31
2023-06-22T01:11:08.070Z,97668.78
2023-06-22T01:13:43.181Z,97668.78
2023-06-22T01:16:18.143Z,97667.97
2023-06-22T01:18:48.745Z,97679.84
2023-06-22T01:21:19.899Z,97679.38
2023-06-22T01:24:09.342Z,97669.91
2023-06-22T01:26:42.843Z,97675.47
2023-06-22T01:29:15.053Z,97681.81
2023-06-22T01:31:45.783Z,97678.56
2023-06-22T01:34:16.021Z,97682.63
2023-06-22T01:36:45.606Z,97681.00
2023-06-22T01:39:14.982Z,97671.88
2023-06-22T01:41:45.526Z,97678.56
2023-06-22T01:44:18.845Z,97689.28
2023-06-22T01:46:48.194Z,97689.28
2023-06-22T01:49:17.316Z,97692.06
2023-06-22T01:51:45.827Z,97704.28
2023-06-22T01:54:14.354Z,97698.75
2023-06-22T01:56:42.824Z,97704.28
2023-06-22T01:59:16.377Z,97704.28
2023-06-22T02:01:53.701Z,97702.66
2023-06-22T02:04:26.419Z,97697.13
2023-06-22T02:06:59.124Z,97698.75
2023-06-22T02:09:32.782Z,97703.47
2023-06-22T02:12:06.268Z,97702.66
2023-06-22T02:14:36.644Z,97692.41
2023-06-22T02:17:08.762Z,97691.59
2023-06-22T02:19:38.959Z,97688.81
2023-06-22T02:22:07.589Z,97692.72
2023-06-22T02:24:36.140Z,97691.59
2023-06-22T02:27:07.001Z,97688.34
2023-06-22T02:29:35.607Z,97689.97
2023-06-22T02:32:06.601Z,97695.50
2023-06-22T02:34:35.153Z,97693.88
2023-06-22T02:37:03.807Z,97692.72
2023-06-22T02:39:32.350Z,97695.50
2023-06-22T02:42:00.821Z,97693.88
2023-06-22T02:44:29.340Z,97701.03
2023-06-22T02:46:57.966Z,97692.72
2023-06-22T02:49:28.550Z,97696.66
2023-06-22T02:51:57.423Z,97687.53
2023-06-22T02:54:26.502Z,97688.34
2023-06-22T02:56:56.352Z,97696.66
2023-06-22T02:59:25.405Z,97693.06
2023-06-22T03:02:00.692Z,97693.88
2023-06-22T03:04:33.908Z,97693.06
2023-06-22T03:07:03.044Z,97697.78
2023-06-22T03:09:33.425Z,97702.19
2023-06-22T03:12:03.146Z,97704.94
2023-06-22T03:14:40.555Z,97693.06
2023-06-22T03:17:11.914Z,97682.81
2023-06-22T03:19:41.887Z,97671.72
2023-06-22T03:22:12.108Z,97668.16
2023-06-22T03:24:42.882Z,97664.56
2023-06-22T03:27:11.410Z,97653.50
2023-06-22T03:29:39.939Z,97653.50
2023-06-22T03:32:09.027Z,97647.97
2023-06-22T03:34:38.031Z,97645.19
2023-06-22T03:37:08.055Z,97641.63
2023-06-22T03:39:36.567Z,97647.97
2023-06-22T03:42:06.455Z,97645.19
2023-06-22T03:44:36.688Z,97654.31
2023-06-22T03:47:08.287Z,97653.50
2023-06-22T03:49:38.133Z,97649.91
2023-06-22T03:52:08.931Z,97646.38
2023-06-22T03:54:37.406Z,97650.28
2023-06-22T03:57:06.587Z,97657.44
2023-06-22T03:59:35.213Z,97648.78
2023-06-22T04:02:03.713Z,97648.44
2023-06-22T04:04:32.296Z,97654.44
2023-06-22T04:07:00.910Z,97660.47
2023-06-22T04:09:30.749Z,97660.94
2023-06-22T04:11:59.286Z,97657.03
2023-06-22T04:14:27.795Z,97660.94
2023-06-22T04:16:56.302Z,97660.94
2023-06-22T04:19:24.804Z,97654.59
2023-06-22T04:21:53.218Z,97664.84
2023-06-22T04:24:21.684Z,97657.38
2023-06-22T04:26:54.696Z,97649.88
2023-06-22T04:29:31.165Z,97645.97
2023-06-22T04:32:04.108Z,97629.34
2023-06-22T04:34:33.115Z,97634.88
2023-06-22T04:37:01.614Z,97641.22
2023-06-22T04:39:30.127Z,97634.88
2023-06-22T04:42:01.435Z,97631.78
2023-06-22T04:44:30.113Z,97632.59
2023-06-22T04:47:03.200Z,97638.13
2023-06-22T04:49:35.443Z,97623.16
2023-06-22T04:52:05.712Z,97617.59
2023-06-22T04:54:34.972Z,97608.19
2023-06-22T04:57:10.819Z,97607.84
2023-06-22T04:59:42.606Z,97599.53
2023-06-22T05:02:11.689Z,97591.56
2023-06-22T05:04:40.917Z,97596.78
2023-06-22T05:07:10.119Z,97600.34
2023-06-22T05:09:39.137Z,97588.47
2023-06-22T05:12:11.333Z,97581.78
2023-06-22T05:14:40.428Z,97581.44
2023-06-22T05:17:16.117Z,97580.28
2023-06-22T05:19:46.130Z,97578.00
2023-06-22T05:22:14.813Z,97575.22
2023-06-22T05:24:43.718Z,97571.31
2023-06-22T05:27:13.636Z,97569.69
2023-06-22T05:29:43.575Z,97569.69
2023-06-22T05:32:12.117Z,97564.16
2023-06-22T05:34:41.040Z,97570.50
2023-06-22T05:37:10.606Z,97565.78
2023-06-22T05:39:39.862Z,97561.88
2023-06-22T05:42:10.871Z,97557.47
2023-06-22T05:44:41.845Z,97558.63
2023-06-22T05:47:10.445Z,97559.78
2023-06-22T05:49:38.897Z,97557.81
2023-06-22T05:52:07.805Z,97557.66
2023-06-22T05:54:36.782Z,97561.13
2023-06-22T05:57:06.014Z,97556.06
2023-06-22T05:59:34.499Z,97559.97
2023-06-22T06:02:04.933Z,97555.25
2023-06-22T06:04:33.592Z,97553.28
2023-06-22T06:07:02.235Z,97556.19
2023-06-22T06:09:30.782Z,97557.00
2023-06-22T06:11:59.471Z,97551.94
2023-06-22T06:14:28.095Z,97554.03
2023-06-22T06:16:56.583Z,97546.06
2023-06-22T06:19:26.404Z,97555.66
2023-06-22T06:21:54.969Z,97546.19
2023-06-22T06:24:23.528Z,97550.94
2023-06-22T06:26:52.437Z,97548.16
2023-06-22T06:29:20.943Z,97552.53
2023-06-22T06:31:49.526Z,97551.72
2023-06-22T06:34:18.096Z,97552.53
2023-06-22T06:36:47.978Z,97556.94
2023-06-22T06:39:17.092Z,97549.78
2023-06-22T06:41:45.619Z,97546.19
2023-06-22T06:44:17.804Z,97546.19
2023-06-22T06:46:46.470Z,97542.28
2023-06-22T06:49:15.454Z,97535.13
2023-06-22T06:51:43.919Z,97536.75
2023-06-22T06:54:13.814Z,97536.75
2023-06-22T06:56:49.146Z,97533.97
2023-06-22T06:59:17.823Z,97546.66
2023-06-22T07:01:46.775Z,97539.97
2023-06-22T07:04:15.370Z,97538.38
2023-06-22T07:06:43.984Z,97538.03
2023-06-22T07:09:13.900Z,97535.72
2023-06-22T07:11:42.462Z,97536.53
2023-06-22T07:14:11.031Z,97541.75
2023-06-22T07:16:39.727Z,97536.66
2023-06-22T07:19:10.497Z,97544.16
2023-06-22T07:21:40.496Z,97546.94
2023-06-22T07:24:09.417Z,97546.94
2023-06-22T07:26:39.389Z,97545.31
2023-06-22T07:29:08.582Z,97538.63
2023-06-22T07:31:37.197Z,97542.56
2023-06-22T07:34:05.761Z,97537.00
2023-06-22T07:36:36.329Z,97533.09
2023-06-22T07:39:05.016Z,97532.75
2023-06-22T07:41:33.761Z,97525.25
2023-06-22T07:44:04.274Z,97529.31
2023-06-22T07:46:32.786Z,97530.13
2023-06-22T07:49:02.337Z,97527.81
2023-06-22T07:51:30.866Z,97510.53
2023-06-22T07:53:59.474Z,97520.44
2023-06-22T07:56:28.099Z,97519.31
2023-06-22T07:58:59.246Z,97498.75
2023-06-22T08:01:29.225Z,97496.47
2023-06-22T08:03:57.768Z,97498.06
2023-06-22T08:06:26.428Z,97496.59
2023-06-22T08:08:55.520Z,97489.56
2023-06-22T08:11:26.217Z,97480.91
2023-06-22T08:13:56.686Z,97475.34
2023-06-22T08:16:25.216Z,97472.25
2023-06-22T08:18:55.809Z,97462.78
2023-06-22T08:21:24.371Z,97470.75
2023-06-22T08:23:52.967Z,97461.63
2023-06-22T08:26:21.918Z,97460.00
2023-06-22T08:28:51.156Z,97453.31
2023-06-22T08:31:19.721Z,97442.25
2023-06-22T08:33:50.023Z,97447.78
2023-06-22T08:36:20.633Z,97447.44
2023-06-22T08:38:51.410Z,97443.84
2023-06-22T08:41:20.063Z,97441.09
2023-06-22T08:43:48.532Z,97439.94
2023-06-22T08:46:21.048Z,97441.56
2023-06-22T08:48:49.629Z,97447.09
2023-06-22T08:51:18.325Z,97445.47
2023-06-22T08:53:48.209Z,97458.19
2023-06-22T08:56:16.714Z,97457.03
2023-06-22T08:58:45.200Z,97474.81
2023-06-22T09:01:13.778Z,97487.50
2023-06-22T09:03:42.393Z,97501.34
2023-06-22T09:06:11.543Z,97521.91
2023-06-22T09:08:40.118Z,97523.53
2023-06-22T09:11:09.952Z,97527.09
2023-06-22T09:13:38.535Z,97531.03
2023-06-22T09:16:07.740Z,97530.22
2023-06-22T09:18:37.182Z,97533.34
2023-06-22T09:21:05.977Z,97528.59
2023-06-22T09:23:34.652Z,97534.16
2023-06-22T09:26:05.191Z,97533.34
2023-06-22T09:28:35.114Z,97527.31
2023-06-22T09:31:03.682Z,97530.44
2023-06-22T09:33:32.338Z,97527.66
2023-06-22T09:36:00.844Z,97519.69
2023-06-22T09:38:29.360Z,97518.06
2023-06-22T09:40:57.800Z,97511.72
2023-06-22T09:43:26.250Z,97510.09
2023-06-22T09:45:56.206Z,97502.94
2023-06-22T09:48:24.729Z,97497.41
2023-06-22T09:50:53.317Z,97478.34
2023-06-22T09:53:21.775Z,97466.44
2023-06-22T09:55:50.301Z,97468.06
2023-06-22T09:58:18.799Z,97467.25
2023-06-22T10:00:47.286Z,97473.63
2023-06-22T10:03:17.382Z,97485.03
2023-06-22T10:05:47.272Z,97474.75
2023-06-22T10:08:16.509Z,97478.34
2023-06-22T10:10:45.048Z,97475.56
2023-06-22T10:13:13.563Z,97479.16
2023-06-22T10:15:42.149Z,97478.34
2023-06-22T10:18:10.755Z,97477.53
2023-06-22T10:20:40.706Z,97479.16
2023-06-22T10:23:09.178Z,97472.00
2023-06-22T10:25:37.655Z,97476.38
2023-06-22T10:28:06.199Z,97472.00
2023-06-22T10:30:34.806Z,97461.72
2023-06-22T10:33:03.403Z,97453.75
2023-06-22T10:35:32.080Z,97447.41
2023-06-22T10:38:02.149Z,97453.75
2023-06-22T10:40:30.697Z,97452.13
2023-06-22T10:42:59.419Z,97452.13
2023-06-22T10:45:28.569Z,97452.94
2023-06-22T10:47:57.326Z,97447.41
2023-06-22T10:50:26.994Z,97452.59
2023-06-22T10:52:58.788Z,97453.06
2023-06-22T10:55:40.268Z,97446.38
2023-06-22T10:58:15.749Z,97435.75
2023-06-22T11:00:44.295Z,97434.63
2023-06-22T11:03:14.810Z,97425.97
2023-06-22T11:05:43.628Z,97410.47
2023-06-22T11:08:12.207Z,97422.38
2023-06-22T11:10:42.029Z,97422.38
2023-06-22T11:13:12.439Z,97432.31
2023-06-22T11:15:41.226Z,97432.31
2023-06-22T11:18:09.865Z,97427.22
2023-06-22T11:20:39.947Z,97432.78
2023-06-22T11:23:08.693Z,97428.84
2023-06-22T11:25:39.161Z,97419.38
2023-06-22T11:28:09.080Z,97417.44
2023-06-22T11:30:37.574Z,97421.00
2023-06-22T11:33:06.074Z,97422.63
2023-06-22T11:35:34.557Z,97420.66
2023-06-22T11:38:04.479Z,97427.81
2023-06-22T11:40:33.096Z,97421.13
2023-06-22T11:43:03.652Z,97419.16
2023-06-22T11:45:36.066Z,97410.84
2023-06-22T11:48:05.235Z,97407.75
2023-06-22T11:50:36.882Z,97407.41
2023-06-22T11:53:05.506Z,97403.00
2023-06-22T11:55:34.072Z,97390.75
2023-06-22T11:58:04.435Z,97393.53
2023-06-22T12:00:45.987Z,97389.63
2023-06-22T12:03:20.635Z,97394.00
2023-06-22T12:05:49.729Z,97402.31
2023-06-22T12:08:18.430Z,97407.84
2023-06-22T12:10:47.020Z,97414.56
2023-06-22T12:13:15.607Z,97412.25
2023-06-22T12:15:44.087Z,97405.56
2023-06-22T12:18:12.913Z,97383.59
2023-06-22T12:20:42.839Z,97367.91
2023-06-22T12:23:11.360Z,97358.91
2023-06-22T12:25:39.893Z,97356.13
2023-06-22T12:28:08.413Z,97362.47
2023-06-22T12:30:37.046Z,97366.06
2023-06-22T12:33:05.570Z,97369.63
2023-06-22T12:35:34.110Z,97387.44
2023-06-22T12:38:04.425Z,97380.53
2023-06-22T12:40:34.422Z,97386.88
2023-06-22T12:43:03.375Z,97376.59
2023-06-22T12:45:37.304Z,97386.06
2023-06-22T12:48:06.957Z,97402.38
2023-06-22T12:50:35.559Z,97405.13
2023-06-22T12:53:07.203Z,97411.47
2023-06-22T12:55:35.773Z,97412.28
2023-06-22T12:58:04.304Z,97419.47
2023-06-22T13:00:33.073Z,97413.91
2023-06-22T13:03:01.866Z,97412.28
2023-06-22T13:05:31.636Z,97413.91
2023-06-22T13:08:00.140Z,97408.72
2023-06-22T13:10:30.255Z,97412.28
2023-06-22T13:13:01.557Z,97409.53
2023-06-22T13:15:30.714Z,97397.28
2023-06-22T13:17:59.420Z,97388.97
2023-06-22T13:20:29.114Z,97388.97
2023-06-22T13:22:57.976Z,97383.78
2023-06-22T13:25:27.827Z,97385.38
2023-06-22T13:27:58.089Z,97398.91
2023-06-22T13:30:26.687Z,97394.16
2023-06-22T13:32:55.259Z,97400.50
2023-06-22T13:35:23.915Z,97396.59
2023-06-22T13:37:52.370Z,97391.84
2023-06-22T13:40:20.860Z,97388.75
2023-06-22T13:42:49.489Z,97392.31
2023-06-22T13:45:20.131Z,97392.66
2023-06-22T13:47:48.966Z,97392.66
2023-06-22T13:50:17.476Z,97389.91
2023-06-22T13:52:45.951Z,97387.13
2023-06-22T13:55:15.349Z,97384.00
2023-06-22T13:57:44.688Z,97376.50
2023-06-22T14:00:14.584Z,97368.19
2023-06-22T14:02:44.625Z,97357.91
2023-06-22T14:05:13.391Z,97339.75
2023-06-22T14:07:42.544Z,97315.97
2023-06-22T14:10:11.706Z,97313.19
2023-06-22T14:12:40.438Z,97314.00
2023-06-22T14:15:09.573Z,97307.66
2023-06-22T14:17:38.110Z,97322.31
2023-06-22T14:20:09.826Z,97332.59
2023-06-22T14:22:38.550Z,97342.88
2023-06-22T14:25:08.313Z,97350.84
2023-06-22T14:27:36.912Z,97335.84
2023-06-22T14:30:07.390Z,97319.19
2023-06-22T14:32:36.024Z,97300.16
2023-06-22T14:35:04.892Z,97298.19
2023-06-22T14:37:34.698Z,97293.44
2023-06-22T14:40:03.301Z,97288.25
2023-06-22T14:42:32.174Z,97292.19
2023-06-22T14:45:00.641Z,97285.00
2023-06-22T14:47:29.582Z,97300.03
2023-06-22T14:49:58.180Z,97294.50
2023-06-22T14:52:26.901Z,97295.66
2023-06-22T14:54:57.739Z,97296.78
2023-06-22T14:57:26.208Z,97303.97
2023-06-22T14:59:54.891Z,97298.41
2023-06-22T15:02:23.884Z,97298.41
2023-06-22T15:04:54.100Z,97306.72
2023-06-22T15:07:22.559Z,97304.78
2023-06-22T15:09:51.273Z,97304.41
2023-06-22T15:12:21.163Z,97299.34
2023-06-22T15:14:49.658Z,97295.41
2023-06-22T15:17:18.193Z,97305.69
2023-06-22T15:19:46.634Z,97305.69
2023-06-22T15:22:17.690Z,97304.88
2023-06-22T15:24:46.684Z,97306.50
2023-06-22T15:27:15.214Z,97299.34
2023-06-22T15:29:45.066Z,97299.34
2023-06-22T15:32:13.909Z,97299.78
2023-06-22T15:34:42.363Z,97293.44
2023-06-22T15:37:10.962Z,97297.03
2023-06-22T15:39:39.551Z,97290.31
2023-06-22T15:42:08.369Z,97290.78
2023-06-22T15:44:36.863Z,97285.69
2023-06-22T15:47:07.115Z,97282.56
2023-06-22T15:49:35.669Z,97280.97
2023-06-22T15:52:04.455Z,97277.84
2023-06-22T15:54:33.187Z,97272.63
2023-06-22T15:57:01.650Z,97279.81
2023-06-22T15:59:30.144Z,97273.44
2023-06-22T16:01:58.807Z,97275.06
2023-06-22T16:04:28.658Z,97277.84
2023-06-22T16:06:57.134Z,97266.75
2023-06-22T16:09:25.558Z,97267.91
2023-06-22T16:11:54.088Z,97273.00
2023-06-22T16:14:23.371Z,97280.50
2023-06-22T16:16:51.883Z,97285.22
2023-06-22T16:19:20.452Z,97277.38
2023-06-22T16:21:50.422Z,97271.03
2023-06-22T16:24:18.949Z,97248.94
2023-06-22T16:26:48.728Z,97238.66
2023-06-22T16:29:17.198Z,97226.41
2023-06-22T16:31:45.879Z,97239.47
2023-06-22T16:34:14.397Z,97260.03
2023-06-22T16:36:42.943Z,97274.38
2023-06-22T16:39:12.956Z,97280.72
2023-06-22T16:41:41.733Z,97278.28
2023-06-22T16:44:10.254Z,97259.22
2023-06-22T16:46:40.007Z,97239.81
2023-06-22T16:49:08.472Z,97224.44
2023-06-22T16:51:36.906Z,97219.81
2023-06-22T16:54:06.401Z,97206.66
2023-06-22T16:56:36.592Z,97206.22
2023-06-22T16:59:08.006Z,97208.97
2023-06-22T17:01:39.126Z,97228.38
2023-06-22T17:04:10.852Z,97239.47
2023-06-22T17:06:43.591Z,97238.66
2023-06-22T17:09:15.057Z,97236.25
2023-06-22T17:11:44.952Z,97258.44
2023-06-22T17:14:13.822Z,97257.28
2023-06-22T17:16:45.690Z,97258.44
2023-06-22T17:19:14.807Z,97260.84
2023-06-22T17:21:44.689Z,97265.59
2023-06-22T17:24:17.759Z,97275.88
2023-06-22T17:26:53.249Z,97284.53
2023-06-22T17:29:21.985Z,97280.16
2023-06-22T17:31:50.711Z,97293.56
2023-06-22T17:34:20.456Z,97282.81
2023-06-22T17:36:50.253Z,97290.66
2023-06-22T17:39:21.309Z,97288.72
2023-06-22T17:41:52.460Z,97288.72
2023-06-22T17:44:21.910Z,97289.63
2023-06-22T17:46:54.043Z,97290.44
2023-06-22T17:49:23.337Z,97292.41
2023-06-22T17:51:52.310Z,97305.81
2023-06-22T17:54:27.670Z,97305.81
2023-06-22T17:57:16.227Z,97305.00
2023-06-22T17:59:49.787Z,97303.72
2023-06-22T18:02:23.825Z,97300.16
2023-06-22T18:04:52.698Z,97300.50
2023-06-22T18:07:21.345Z,97307.66
2023-06-22T18:09:49.838Z,97308.81
2023-06-22T18:12:21.498Z,97306.38
2023-06-22T18:14:50.121Z,97305.56
2023-06-22T18:17:22.565Z,97301.66
2023-06-22T18:19:52.560Z,97298.41
2023-06-22T18:22:21.386Z,97297.59
2023-06-22T18:24:51.508Z,97305.56
2023-06-22T18:27:21.918Z,97305.56
2023-06-22T18:29:52.270Z,97319.09
2023-06-22T18:32:21.074Z,97315.03
2023-06-22T18:34:52.373Z,97316.66
2023-06-22T18:37:22.089Z,97287.44
2023-06-22T18:39:54.190Z,97258.91
2023-06-22T18:42:24.246Z,97263.75
2023-06-22T18:44:54.240Z,97299.44
2023-06-22T18:47:29.766Z,97333.53
2023-06-22T18:50:07.223Z,97348.88
2023-06-22T18:52:37.185Z,97344.50
2023-06-22T18:55:07.526Z,97346.47
2023-06-22T18:57:38.090Z,97330.97
2023-06-22T19:00:10.580Z,97323.81
2023-06-22T19:02:44.456Z,97336.88
2023-06-22T19:05:17.142Z,97329.72
2023-06-22T19:07:59.815Z,97333.28
2023-06-22T19:10:30.062Z,97327.75
2023-06-22T19:13:18.826Z,97331.22
2023-06-22T19:15:49.423Z,97334.00
2023-06-22T19:18:18.775Z,97344.28
2023-06-22T19:20:49.400Z,97356.97
2023-06-22T19:23:31.582Z,97357.78
2023-06-22T19:26:01.752Z,97386.66
2023-06-22T19:28:32.834Z,97387.81
2023-06-22T19:31:02.964Z,97382.28
2023-06-22T19:33:31.479Z,97376.72
2023-06-22T19:36:03.563Z,97349.00
2023-06-22T19:38:34.613Z,97349.00
2023-06-22T19:41:03.623Z,97359.28
2023-06-22T19:43:33.679Z,97359.28
2023-06-22T19:46:02.642Z,97358.47
2023-06-22T19:48:32.449Z,97358.00
2023-06-22T19:51:05.538Z,97365.63
2023-06-22T19:53:34.259Z,97375.09
2023-06-22T19:56:02.854Z,97376.72
2023-06-22T19:58:36.753Z,97387.81
2023-06-22T20:01:05.229Z,97391.75
2023-06-22T20:03:34.790Z,97397.28
2023-06-22T20:06:11.408Z,97390.59
2023-06-22T20:08:48.321Z,97401.66
2023-06-22T20:11:24.863Z,97400.50
2023-06-22T20:13:55.520Z,97400.50
2023-06-22T20:16:24.819Z,97399.72
2023-06-22T20:19:07.311Z,97398.91
2023-06-22T20:21:36.215Z,97405.25
2023-06-22T20:24:06.276Z,97410.00
2023-06-22T20:26:40.005Z,97405.59
2023-06-22T20:29:30.002Z,97419.47
2023-06-22T20:32:06.422Z,97432.16
2023-06-22T20:34:36.379Z,97425.81
2023-06-22T20:37:05.420Z,97430.53
2023-06-22T20:39:34.009Z,97446.03
2023-06-22T20:42:05.276Z,97443.25
2023-06-22T20:44:35.750Z,97439.66
2023-06-22T20:47:05.490Z,97453.19
2023-06-22T20:49:36.633Z,97464.75
2023-06-22T20:52:07.874Z,97479.06
2023-06-22T20:54:36.997Z,97476.63
2023-06-22T20:57:05.992Z,97499.63
2023-06-22T20:59:36.059Z,97480.69
2023-06-22T21:02:05.304Z,97490.16
2023-06-22T21:04:36.559Z,97485.41
2023-06-22T21:07:06.683Z,97490.16
2023-06-22T21:09:46.102Z,97493.72
2023-06-22T21:12:19.245Z,97502.41
2023-06-22T21:14:50.685Z,97520.19
2023-06-22T21:17:19.896Z,97520.88
2023-06-22T21:19:48.530Z,97528.38
2023-06-22T21:22:17.154Z,97520.75
2023-06-22T21:24:46.370Z,97544.88
2023-06-22T21:27:15.030Z,97535.75
2023-06-22T21:29:43.565Z,97544.38
2023-06-22T21:32:13.390Z,97550.59
2023-06-22T21:34:41.902Z,97560.06
2023-06-22T21:37:10.312Z,97569.53
2023-06-22T21:39:38.757Z,97570.69
2023-06-22T21:42:07.821Z,97571.84
2023-06-22T21:44:36.299Z,97567.44
2023-06-22T21:47:05.050Z,97568.59
2023-06-22T21:49:34.880Z,97577.25
2023-06-22T21:52:03.552Z,97576.44
2023-06-22T21:54:32.069Z,97567.66
2023-06-22T21:57:00.554Z,97583.47
2023-06-22T21:59:29.089Z,97577.13
2023-06-22T22:01:57.712Z,97585.78
2023-06-22T22:04:26.245Z,97579.41
2023-06-22T22:06:56.062Z,97594.44
2023-06-22T22:09:24.568Z,97588.06
2023-06-22T22:11:53.131Z,97587.25
2023-06-22T22:14:21.657Z,97593.94
2023-06-22T22:16:50.126Z,97596.72
2023-06-22T22:19:18.626Z,97590.38
2023-06-22T22:21:48.443Z,97606.19
2023-06-22T22:24:18.346Z,97593.47
2023-06-22T22:26:46.807Z,97602.94
2023-06-22T22:29:15.358Z,97608.47
2023-06-22T22:31:43.875Z,97606.88
2023-06-22T22:34:12.394Z,97596.59
2023-06-22T22:36:41.262Z,97596.13
2023-06-22T22:39:11.080Z,97608.00
2023-06-22T22:41:41.428Z,97613.56
2023-06-22T22:44:09.872Z,97609.97
2023-06-22T22:46:38.468Z,97614.69
2023-06-22T22:49:06.986Z,97623.34
2023-06-22T22:51:35.435Z,97629.69
2023-06-22T22:54:04.010Z,97635.25
2023-06-22T22:56:32.479Z,97630.03
2023-06-22T22:59:02.492Z,97629.22
2023-06-22T23:01:30.959Z,97637.53
2023-06-22T23:03:59.421Z,97648.63
2023-06-22T23:06:27.955Z,97645.84
2023-06-22T23:08:58.444Z,97651.41
2023-06-22T23:11:27.364Z,97657.75
2023-06-22T23:13:58.239Z,97645.38
2023-06-22T23:16:29.625Z,97654.50
2023-06-22T23:18:58.083Z,97666.41
2023-06-22T23:21:30.144Z,97663.63
2023-06-22T23:23:58.701Z,97670.31
2023-06-22T23:26:29.221Z,97666.41
2023-06-22T23:28:58.128Z,97674.72
2023-06-22T23:31:26.827Z,97662.00
2023-06-22T23:33:56.597Z,97654.84
2023-06-22T23:36:26.347Z,97654.84
2023-06-22T23:38:55.376Z,97650.44
2023-06-22T23:41:26.215Z,97658.75
2023-06-22T23:43:55.237Z,97658.75
2023-06-22T23:46:23.837Z,97674.56
2023-06-22T23:48:53.739Z,97680.09
2023-06-22T23:51:23.627Z,97687.59
2023-06-22T23:53:52.049Z,97684.84
2023-06-22T23:56:21.657Z,97682.88
2023-06-22T23:58:51.064Z,97679.63
